Time;durP1;ratioP1;P1;durP2;ratioP2;P2;SDS_P1;SDS_P2;PMS_P1;PMS_P2;Temp;Humidity;BMP_temperature;BMP_pressure;BME280_temperature;BME280_humidity;BME280_pressure;Samples;Min_cycle;Max_cycle;Signal;HPM_P1;HPM_P2
2022/10/04 00:02:22;;;;;;;;;;;;;;;14.65;57.36;101294.91;4933457;28;7020;-80
2022/10/04 00:05:06;;;;;;;;;;;;;;;14.65;57.54;101294.91;4927811;28;7066;-80
2022/10/04 00:07:49;;;;;;;;;;;;;;;14.66;57.41;101283.75;4937123;28;7279;-80
2022/10/04 00:10:29;;;;;;;;;;;;;;;14.67;58.27;101288.09;4933228;28;6960;-80
2022/10/04 00:13:14;;;;;;;;;;;;;;;14.68;57.61;101289.88;4940433;28;7187;-80
2022/10/04 00:15:40;;;;;;;;;;;;;;;14.71;57.43;101289.13;4939114;28;6829;-80
2022/10/04 00:18:35;;;;;;;;;;;;;;;14.73;57.52;101282.38;4940538;28;8473;-81
2022/10/04 00:21:03;;;;;;;;;;;;;;;14.74;57.66;101286.72;4940646;28;7304;-80
2022/10/04 00:23:42;;;;;;;;;;;;;;;14.75;57.80;101285.91;4925882;28;6816;-81
2022/10/04 00:26:34;;;;;;;;;;;;;;;14.75;57.68;101285.91;4928947;28;6994;-80
2022/10/04 00:29:40;;;;;;;;;;;;;;;14.76;57.50;101285.06;4938941;28;6989;-78
2022/10/04 00:32:09;;;;;;;;;;;;;;;14.76;57.83;101292.81;4926825;28;6796;-80
2022/10/04 00:34:34;;;;;;;;;;;;;;;14.76;58.09;101287.66;4936812;28;8538;-80
2022/10/04 00:37:12;;;;;;;;;;;;;;;14.77;57.99;101289.44;4927640;28;8843;-78
2022/10/04 00:39:42;;;;;;;;;;;;;;;14.77;57.92;101283.41;4936939;28;7309;-78
2022/10/04 00:42:38;;;;;;;;;;;;;;;14.76;57.80;101276.47;4937867;28;6820;-79
2022/10/04 00:45:42;;;;;;;;;;;;;;;14.77;57.70;101279.09;4934959;28;7205;-79
2022/10/04 00:48:07;;;;;;;;;;;;;;;14.75;57.84;101275.56;4922731;28;8412;-79
2022/10/04 00:50:47;;;;;;;;;;;;;;;14.76;57.80;101286.78;4932455;28;7191;-79
2022/10/04 00:53:44;;;;;;;;;;;;;;;14.77;57.63;101278.25;4937055;28;8551;-78
2022/10/04 00:56:20;;;;;;;;;;;;;;;14.78;57.71;101287.75;4940267;28;7227;-79
2022/10/04 00:59:16;;;;;;;;;;;;;;;14.78;57.56;101285.16;4907530;28;8408;-79
2022/10/04 01:01:48;;;;;;;;;;;;;;;14.77;57.38;101279.09;4933365;28;7203;-80
2022/10/04 01:04:40;;;;;;;;;;;;;;;14.75;57.39;101274.72;4939603;28;7238;-79
2022/10/04 01:07:10;;;;;;;;;;;;;;;14.74;57.24;101276.41;4933120;28;6966;-80
2022/10/04 01:09:47;;;;;;;;;;;;;;;14.73;57.99;101282.38;4934567;28;7063;-79
2022/10/04 01:12:35;;;;;;;;;;;;;;;14.71;57.18;101278.81;4935330;28;8191;-80
2022/10/04 01:15:15;;;;;;;;;;;;;;;14.70;57.90;101277.06;4933863;28;7190;-79
2022/10/04 01:18:00;;;;;;;;;;;;;;;14.68;57.51;101268.38;4936246;28;7797;-80
2022/10/04 01:20:38;;;;;;;;;;;;;;;14.66;58.30;101275.13;4935629;28;6988;-80
2022/10/04 01:23:04;;;;;;;;;;;;;;;14.63;57.95;101265.56;4935284;28;7098;-80
2022/10/04 01:25:49;;;;;;;;;;;;;;;14.63;57.59;101275.91;4938289;28;6960;-80
2022/10/04 01:28:15;;;;;;;;;;;;;;;14.60;57.90;101265.41;4936247;28;7202;-81
2022/10/04 01:30:42;;;;;;;;;;;;;;;14.58;57.74;101261.88;4933977;28;7172;-80
2022/10/04 01:33:08;;;;;;;;;;;;;;;14.58;57.76;101257.63;4933204;28;8895;-80
2022/10/04 01:35:34;;;;;;;;;;;;;;;14.57;57.71;101261.00;4925826;28;7179;-81
2022/10/04 01:38:06;;;;;;;;;;;;;;;14.52;57.86;101262.50;4935998;28;6953;-80
2022/10/04 01:40:35;;;;;;;;;;;;;;;14.48;57.41;101264.88;4934967;28;7106;-79
2022/10/04 01:43:07;;;;;;;;;;;;;;;14.43;57.01;101260.38;4937177;28;6796;-80
2022/10/04 01:45:46;;;;;;;;;;;;;;;14.36;57.22;101260.91;4935329;28;6839;-80
2022/10/04 01:48:21;;;;;;;;;;;;;;;14.29;57.33;101258.84;4942431;28;7223;-81
2022/10/04 01:51:03;;;;;;;;;;;;;;;14.21;57.01;101255.94;4940917;28;8114;-80
2022/10/04 01:53:53;;;;;;;;;;;;;;;14.15;57.43;101255.63;4946678;28;8961;-80
2022/10/04 01:56:25;;;;;;;;;;;;;;;14.08;58.25;101256.16;4922390;28;8462;-80
2022/10/04 01:59:01;;;;;;;;;;;;;;;14.03;58.05;101246.50;4938760;28;6796;-81
2022/10/04 02:01:33;;;;;;;;;;;;;;;13.99;57.47;101249.75;4940585;28;7013;-80
2022/10/04 02:04:11;;;;;;;;;;;;;;;13.98;58.69;101252.25;4942892;28;6988;-80
2022/10/04 02:06:42;;;;;;;;;;;;;;;13.96;58.36;101253.91;4939468;28;6853;-80
2022/10/04 02:09:37;;;;;;;;;;;;;;;13.93;57.87;101249.47;4938679;28;6808;-79
2022/10/04 02:12:05;;;;;;;;;;;;;;;13.88;58.35;101245.78;4939019;28;7114;-80
2022/10/04 02:14:33;;;;;;;;;;;;;;;13.88;58.45;101246.66;4940693;28;6848;-80
2022/10/04 02:17:07;;;;;;;;;;;;;;;13.87;57.84;101238.84;4938735;28;8533;-80
2022/10/04 02:19:43;;;;;;;;;;;;;;;13.84;58.60;101242.16;4939910;28;8471;-79
2022/10/04 02:22:10;;;;;;;;;;;;;;;13.81;58.76;101223.09;4941913;28;7008;-80
2022/10/04 02:24:43;;;;;;;;;;;;;;;13.80;58.74;101224.81;4924658;28;7215;-80
2022/10/04 02:27:09;;;;;;;;;;;;;;;13.77;58.73;101213.47;4938626;28;6936;-80
2022/10/04 02:29:34;;;;;;;;;;;;;;;13.74;57.81;101209.94;4939163;28;6927;-80
2022/10/04 02:34:53;;;;;;;;;;;;;;;13.65;57.71;101208.59;4940865;28;6812;-81
2022/10/04 02:37:23;;;;;;;;;;;;;;;13.60;58.43;101209.28;4929445;28;8477;-81
2022/10/04 02:40:11;;;;;;;;;;;;;;;13.57;58.76;101203.09;4941501;28;6920;-80
2022/10/04 02:42:56;;;;;;;;;;;;;;;13.52;58.82;101204.53;4938797;28;6800;-81
2022/10/04 02:45:37;;;;;;;;;;;;;;;13.45;58.62;101201.69;4925971;28;8537;-81
2022/10/04 02:48:26;;;;;;;;;;;;;;;13.40;58.81;101197.09;4941112;28;7134;-81
2022/10/04 02:50:59;;;;;;;;;;;;;;;13.35;58.81;101181.41;4941454;28;7428;-81
2022/10/04 02:53:46;;;;;;;;;;;;;;;13.32;58.97;101181.22;4948375;28;8428;-79
2022/10/04 02:56:13;;;;;;;;;;;;;;;13.29;58.26;101187.13;4945786;28;6804;-79
2022/10/04 02:58:41;;;;;;;;;;;;;;;13.26;58.42;101179.25;4946901;28;7211;-78
2022/10/04 03:01:24;;;;;;;;;;;;;;;13.23;58.12;101178.19;4948440;28;7230;-78
2022/10/04 03:03:52;;;;;;;;;;;;;;;13.19;58.78;101177.19;4948267;28;6864;-78
2022/10/04 03:06:21;;;;;;;;;;;;;;;13.15;58.41;101170.13;4937471;28;6963;-78
2022/10/04 03:09:01;;;;;;;;;;;;;;;13.11;58.53;101171.66;4945840;28;6808;-79
2022/10/04 03:11:35;;;;;;;;;;;;;;;13.06;59.13;101166.25;4947215;28;8780;-78
2022/10/04 03:14:06;;;;;;;;;;;;;;;13.05;58.25;101164.50;4930835;28;8531;-80
2022/10/04 03:16:38;;;;;;;;;;;;;;;13.03;58.48;101160.09;4929287;28;8532;-79
2022/10/04 03:19:06;;;;;;;;;;;;;;;13.01;59.14;101159.13;4947571;28;7004;-79
2022/10/04 03:21:37;;;;;;;;;;;;;;;12.98;58.49;101159.84;4946091;28;6792;-79
2022/10/04 03:24:05;;;;;;;;;;;;;;;12.97;58.82;101164.94;4946264;28;8432;-79
2022/10/04 03:26:46;;;;;;;;;;;;;;;12.94;58.15;101167.34;4945953;28;6797;-80
2022/10/04 03:29:16;;;;;;;;;;;;;;;12.90;58.62;101162.03;4943471;28;7088;-78
2022/10/04 03:31:50;;;;;;;;;;;;;;;12.89;58.81;101160.28;4945753;28;7326;-79
2022/10/04 03:34:23;;;;;;;;;;;;;;;12.87;58.44;101151.59;4933521;28;8821;-78
2022/10/04 03:36:57;;;;;;;;;;;;;;;12.87;58.95;101154.19;4947637;28;6883;-81
2022/10/04 03:39:33;;;;;;;;;;;;;;;12.86;59.26;101148.94;4944546;28;6958;-81
2022/10/04 03:42:09;;;;;;;;;;;;;;;12.85;58.67;101142.03;4943433;28;6792;-79
2022/10/04 03:44:36;;;;;;;;;;;;;;;12.84;58.50;101138.56;4939846;28;7050;-78
2022/10/04 03:47:11;;;;;;;;;;;;;;;12.82;58.54;101127.31;4941681;28;7181;-80
2022/10/04 03:49:41;;;;;;;;;;;;;;;12.79;59.34;101132.31;4946155;28;6809;-80
2022/10/04 03:52:20;;;;;;;;;;;;;;;12.77;58.90;101134.81;4913591;28;8595;-81
2022/10/04 03:54:54;;;;;;;;;;;;;;;12.73;58.58;101122.63;4931734;28;8519;-80
2022/10/04 03:57:20;;;;;;;;;;;;;;;12.67;58.30;101118.84;4932927;28;6959;-81
2022/10/04 03:59:46;;;;;;;;;;;;;;;12.61;58.86;101117.72;4930325;28;8578;-80
2022/10/04 04:02:36;;;;;;;;;;;;;;;12.56;58.37;101119.19;4924798;28;8408;-80
2022/10/04 04:05:46;;;;;;;;;;;;;;;12.48;58.83;101126.47;4927165;28;8850;-81
2022/10/04 04:08:24;;;;;;;;;;;;;;;12.42;58.51;101131.31;4940795;28;6921;-80
2022/10/04 04:10:55;;;;;;;;;;;;;;;12.39;59.25;101126.00;4927247;28;6976;-80
2022/10/04 04:13:57;;;;;;;;;;;;;;;12.37;58.80;101119.91;4938493;28;7232;-79
2022/10/04 04:16:27;;;;;;;;;;;;;;;12.33;58.84;101118.84;4940570;28;7398;-81
2022/10/04 04:19:00;;;;;;;;;;;;;;;12.33;59.21;101116.28;4946048;28;7400;-80
2022/10/04 04:21:28;;;;;;;;;;;;;;;12.34;58.87;101123.19;4947004;28;8635;-81
2022/10/04 04:24:13;;;;;;;;;;;;;;;12.33;58.90;101121.44;4930390;28;6868;-80
2022/10/04 04:26:46;;;;;;;;;;;;;;;12.32;59.32;101123.94;4938761;28;7032;-81
2022/10/04 04:29:29;;;;;;;;;;;;;;;12.29;59.35;101124.66;4944043;28;6949;-80
2022/10/04 04:32:04;;;;;;;;;;;;;;;12.26;59.44;101127.03;4941158;28;8382;-79
2022/10/04 04:34:43;;;;;;;;;;;;;;;12.24;58.71;101114.94;4928791;28;8479;-83
2022/10/04 04:37:09;;;;;;;;;;;;;;;12.21;58.83;101116.53;4944929;28;7209;-81
2022/10/04 04:39:43;;;;;;;;;;;;;;;12.22;59.50;101120.00;4945722;28;6780;-81
2022/10/04 04:42:09;;;;;;;;;;;;;;;12.17;58.96;101114.59;4946969;28;7310;-81
2022/10/04 04:44:44;;;;;;;;;;;;;;;12.15;59.19;101108.50;4944008;28;6772;-81
2022/10/04 04:47:43;;;;;;;;;;;;;;;12.14;59.32;101103.28;4935139;28;6965;-80
2022/10/04 04:50:18;;;;;;;;;;;;;;;12.13;59.35;101098.94;4946424;28;6973;-80
2022/10/04 04:52:57;;;;;;;;;;;;;;;12.14;59.72;101103.28;4947309;28;7189;-81
2022/10/04 04:55:28;;;;;;;;;;;;;;;12.14;59.10;101099.03;4934557;28;8418;-82
2022/10/04 04:57:57;;;;;;;;;;;;;;;12.14;59.74;101098.13;4943774;28;6804;-81
2022/10/04 05:00:35;;;;;;;;;;;;;;;12.15;59.31;101093.09;4945489;28;7430;-81
2022/10/04 05:03:16;;;;;;;;;;;;;;;12.19;59.67;101094.13;4945386;28;6975;-82
2022/10/04 05:05:46;;;;;;;;;;;;;;;12.18;59.85;101092.38;4945579;28;7221;-82
2022/10/04 05:08:24;;;;;;;;;;;;;;;12.20;59.52;101098.47;4945473;28;8903;-81
2022/10/04 05:11:05;;;;;;;;;;;;;;;12.20;59.88;101096.75;4946794;28;7000;-81
2022/10/04 05:13:55;;;;;;;;;;;;;;;12.19;59.29;101102.72;4933754;28;7021;-81
2022/10/04 05:16:43;;;;;;;;;;;;;;;12.18;59.42;101105.22;4935247;28;7263;-81
2022/10/04 05:19:26;;;;;;;;;;;;;;;12.14;59.19;101099.03;4946312;28;7025;-80
2022/10/04 05:21:55;;;;;;;;;;;;;;;12.13;59.36;101096.38;4945238;28;6832;-82
2022/10/04 05:24:38;;;;;;;;;;;;;;;12.12;59.46;101094.59;4927348;28;7226;-81
2022/10/04 05:27:34;;;;;;;;;;;;;;;12.09;59.05;101095.31;4946985;28;7657;-81
2022/10/04 05:30:17;;;;;;;;;;;;;;;12.08;59.55;101094.47;4939411;28;6997;-80
2022/10/04 05:33:09;;;;;;;;;;;;;;;12.05;59.38;101091.69;4909603;29;11326;-81
2022/10/04 05:36:10;;;;;;;;;;;;;;;12.01;59.28;101091.44;4917568;28;8974;-81
2022/10/04 05:38:52;;;;;;;;;;;;;;;11.96;59.72;101083.47;4949105;28;7304;-81
2022/10/04 05:41:38;;;;;;;;;;;;;;;11.93;59.74;101079.09;4947430;28;8400;-81
2022/10/04 05:44:26;;;;;;;;;;;;;;;11.91;59.12;101080.66;4947048;28;6888;-81
2022/10/04 05:46:57;;;;;;;;;;;;;;;11.90;59.09;101089.16;4933351;28;6849;-81
2022/10/04 05:49:28;;;;;;;;;;;;;;;11.88;59.61;101079.59;4947187;28;6804;-81
2022/10/04 05:52:37;;;;;;;;;;;;;;;11.87;59.88;101082.97;4944279;28;7391;-81
2022/10/04 05:55:40;;;;;;;;;;;;;;;11.87;59.89;101088.13;4926921;29;7136;-80
2022/10/04 05:58:33;;;;;;;;;;;;;;;11.88;59.77;101085.66;4939640;28;6807;-80
2022/10/04 06:01:10;;;;;;;;;;;;;;;11.88;59.80;101092.44;4924118;28;8696;-79
2022/10/04 06:03:58;;;;;;;;;;;;;;;11.86;60.25;101076.09;4940960;28;8749;-81
2022/10/04 06:06:57;;;;;;;;;;;;;;;11.89;60.22;101073.69;4942667;28;7143;-82
2022/10/04 06:09:26;;;;;;;;;;;;;;;11.90;60.13;101071.19;4934765;28;6854;-82
2022/10/04 06:12:25;;;;;;;;;;;;;;;11.94;59.78;101069.66;4938984;28;7317;-82
2022/10/04 06:15:24;;;;;;;;;;;;;;;11.98;60.32;101071.63;4937918;28;7139;-81
2022/10/04 06:18:08;;;;;;;;;;;;;;;12.05;60.45;101081.44;4940999;28;6990;-81
2022/10/04 06:20:53;;;;;;;;;;;;;;;12.13;60.69;101080.94;4937783;28;7067;-81
2022/10/04 06:23:21;;;;;;;;;;;;;;;12.24;60.67;101068.69;4938855;28;7009;-81
2022/10/04 06:25:54;;;;;;;;;;;;;;;12.37;61.00;101071.06;4932467;29;6967;-81
2022/10/04 06:28:41;;;;;;;;;;;;;;;12.52;61.12;101076.09;4924286;28;8742;-81
2022/10/04 06:31:56;;;;;;;;;;;;;;;12.72;61.68;101089.09;4938910;28;7136;-81
2022/10/04 06:34:34;;;;;;;;;;;;;;;12.96;62.46;101088.56;4942803;28;8803;-81
2022/10/04 06:37:43;;;;;;;;;;;;;;;13.20;63.03;101092.31;4945765;28;6987;-81
2022/10/04 06:40:33;;;;;;;;;;;;;;;13.44;61.94;101104.63;4942916;28;6824;-81
2022/10/04 06:43:59;;;;;;;;;;;;;;;13.68;61.54;101098.88;4941382;28;7216;-82
2022/10/04 06:46:49;;;;;;;;;;;;;;;13.85;61.29;101093.63;4920776;28;7024;-81
2022/10/04 06:49:33;;;;;;;;;;;;;;;14.01;61.02;101101.25;4911112;29;6979;-79
2022/10/04 06:52:23;;;;;;;;;;;;;;;14.16;61.61;101097.56;4934162;28;8134;-80
2022/10/04 06:55:35;;;;;;;;;;;;;;;14.30;61.17;101101.66;4938775;28;8523;-81
2022/10/04 06:58:16;;;;;;;;;;;;;;;14.43;60.96;101104.75;4928565;28;8432;-81
2022/10/04 07:01:19;;;;;;;;;;;;;;;14.52;60.25;101110.31;4929902;28;6781;-81
2022/10/04 07:03:53;;;;;;;;;;;;;;;14.60;60.05;101099.44;4931218;28;6809;-81
2022/10/04 07:06:38;;;;;;;;;;;;;;;14.67;60.07;101094.59;4932289;28;6855;-79
2022/10/04 07:09:20;;;;;;;;;;;;;;;14.75;60.60;101094.09;4927220;29;6800;-78
2022/10/04 07:12:07;;;;;;;;;;;;;;;14.82;60.14;101084.06;4929450;28;8668;-79
2022/10/04 07:14:43;;;;;;;;;;;;;;;14.91;60.32;101088.72;4931999;29;6820;-79
2022/10/04 07:17:20;;;;;;;;;;;;;;;15.00;60.35;101091.69;4911471;29;7115;-80
2022/10/04 07:19:50;;;;;;;;;;;;;;;15.10;60.13;101085.22;4933863;29;7028;-78
2022/10/04 07:22:46;;;;;;;;;;;;;;;15.22;60.33;101091.69;4926801;28;7028;-79
2022/10/04 07:25:29;;;;;;;;;;;;;;;15.32;60.40;101086.06;4902172;29;8833;-79
2022/10/04 07:31:02;;;;;;;;;;;;;;;15.59;60.46;101080.22;4911655;29;6800;-78
2022/10/04 07:33:35;;;;;;;;;;;;;;;15.75;60.87;101086.84;4937738;28;6907;-79
2022/10/04 07:36:12;;;;;;;;;;;;;;;15.95;60.62;101090.22;4938819;28;6876;-78
2022/10/04 07:39:15;;;;;;;;;;;;;;;16.17;60.29;101085.81;4922670;28;6863;-78
2022/10/04 07:41:48;;;;;;;;;;;;;;;16.35;60.12;101085.56;4922643;29;6977;-79
2022/10/04 07:44:35;;;;;;;;;;;;;;;16.55;60.19;101087.97;4925183;29;7087;-79
2022/10/04 07:47:21;;;;;;;;;;;;;;;16.73;59.95;101090.31;4923298;28;8498;-78
2022/10/04 07:49:52;;;;;;;;;;;;;;;16.87;59.60;101083.03;4926237;28;7302;-79
2022/10/04 07:52:47;;;;;;;;;;;;;;;17.00;59.45;101086.94;4937071;28;6953;-78
2022/10/04 07:55:48;;;;;;;;;;;;;;;17.05;58.55;101087.09;4903133;29;8467;-79
2022/10/04 07:58:30;;;;;;;;;;;;;;;17.06;58.50;101089.69;4935477;28;8846;-78
2022/10/04 08:00:59;;;;;;;;;;;;;;;17.05;57.96;101082.75;4923379;28;6919;-78
2022/10/04 08:03:50;;;;;;;;;;;;;;;17.04;57.92;101078.41;4937501;28;6968;-78
2022/10/04 08:06:38;;;;;;;;;;;;;;;17.04;58.08;101080.13;4918013;29;6955;-78
2022/10/04 08:09:40;;;;;;;;;;;;;;;17.07;57.67;101075.06;4935727;28;7277;-78
2022/10/04 08:12:56;;;;;;;;;;;;;;;17.11;57.60;101076.03;4921510;28;7252;-78
2022/10/04 08:15:41;;;;;;;;;;;;;;;17.14;57.64;101061.47;4934279;28;7000;-78
2022/10/04 08:18:45;;;;;;;;;;;;;;;17.23;57.42;101080.69;4933739;28;6982;-78
2022/10/04 08:21:30;;;;;;;;;;;;;;;17.29;57.28;101067.94;4922982;28;6984;-78
2022/10/04 08:24:30;;;;;;;;;;;;;;;17.39;57.26;101074.31;4919795;28;6820;-78
2022/10/04 08:29:41;;;;;;;;;;;;;;;17.47;57.14;101067.63;4922001;29;7243;-79
2022/10/04 08:31:13;;;;;;;;;;;;;;;17.55;56.85;101071.34;4930972;28;7190;-79
2022/10/04 08:34:20;;;;;;;;;;;;;;;17.65;57.04;101069.00;4920109;28;7251;-80
2022/10/04 08:36:53;;;;;;;;;;;;;;;17.74;56.21;101070.19;4921452;28;7403;-79
2022/10/04 08:39:57;;;;;;;;;;;;;;;17.83;55.79;101074.75;4919071;29;7154;-76
2022/10/04 08:42:51;;;;;;;;;;;;;;;17.91;55.37;101081.03;4899331;29;8180;-76
2022/10/04 08:45:52;;;;;;;;;;;;;;;18.00;55.59;101072.63;4914271;29;7451;-76
2022/10/04 08:49:16;;;;;;;;;;;;;;;18.08;55.20;101074.59;4922391;29;7306;-78
2022/10/04 08:51:55;;;;;;;;;;;;;;;18.18;54.66;101079.19;4923444;28;7273;-78
2022/10/04 08:55:18;;;;;;;;;;;;;;;18.29;54.91;101066.53;4918832;28;6836;-79
2022/10/04 08:58:39;;;;;;;;;;;;;;;18.36;54.35;101060.66;4919701;28;7258;-79
2022/10/04 09:01:51;;;;;;;;;;;;;;;18.47;54.10;101060.94;4909972;29;8809;-79
2022/10/04 09:05:07;;;;;;;;;;;;;;;18.57;54.35;101064.66;4914688;28;7659;-77
2022/10/04 09:08:06;;;;;;;;;;;;;;;18.66;53.52;101074.38;4933507;28;6883;-77
2022/10/04 09:10:46;;;;;;;;;;;;;;;18.71;53.39;101081.44;4934839;28;7232;-77
2022/10/04 09:13:39;;;;;;;;;;;;;;;18.81;53.33;101068.69;4937595;28;7216;-77
2022/10/04 09:16:23;;;;;;;;;;;;;;;18.90;53.14;101073.25;4939638;28;8759;-78
2022/10/04 09:18:59;;;;;;;;;;;;;;;18.97;52.72;101070.84;4923802;29;7334;-78
2022/10/04 09:21:45;;;;;;;;;;;;;;;19.06;52.53;101064.13;4919983;28;7245;-79
2022/10/04 09:24:54;;;;;;;;;;;;;;;19.15;52.88;101070.41;4903060;29;7475;-78
2022/10/04 09:27:42;;;;;;;;;;;;;;;19.22;52.20;101070.56;4923103;29;7046;-78
2022/10/04 09:31:10;;;;;;;;;;;;;;;19.32;52.26;101058.69;4921398;29;6981;-77
2022/10/04 09:34:11;;;;;;;;;;;;;;;19.40;52.15;101047.59;4937540;28;12740;-78
2022/10/04 09:37:21;;;;;;;;;;;;;;;19.53;52.00;101038.34;4938097;28;6984;-78
2022/10/04 09:40:02;;;;;;;;;;;;;;;19.64;51.43;101040.28;4938400;28;8442;-77
2022/10/04 09:43:20;;;;;;;;;;;;;;;19.72;51.46;101030.94;4931400;28;8484;-78
2022/10/04 09:46:07;;;;;;;;;;;;;;;19.81;51.39;101031.09;4934549;28;6996;-79
2022/10/04 09:48:53;;;;;;;;;;;;;;;19.89;50.79;101030.34;4935361;28;6822;-77
2022/10/04 09:52:14;;;;;;;;;;;;;;;19.99;50.93;101024.56;4933868;28;7008;-78
2022/10/04 09:54:58;;;;;;;;;;;;;;;20.09;50.34;101030.78;4935237;28;7264;-78
2022/10/04 09:58:35;;;;;;;;;;;;;;;20.22;50.51;101037.97;4937386;28;6997;-78
2022/10/04 10:01:37;;;;;;;;;;;;;;;20.36;50.19;101040.81;4915512;28;7271;-78
2022/10/04 10:04:50;;;;;;;;;;;;;;;20.51;49.66;101041.94;4936136;28;7149;-78
2022/10/04 10:07:35;;;;;;;;;;;;;;;21.11;49.28;101033.38;4919150;28;7210;-78
2022/10/04 10:13:41;;;;;;;;;;;;;;;24.19;44.60;101031.56;4940640;28;6857;-79
2022/10/04 10:16:28;;;;;;;;;;;;;;;26.03;41.74;101024.19;4937970;28;6837;-78
2022/10/04 10:19:33;;;;;;;;;;;;;;;27.49;39.63;101027.22;4941589;28;6972;-78
2022/10/04 10:22:19;;;;;;;;;;;;;;;28.79;37.35;101018.28;4924774;28;7237;-78
2022/10/04 10:24:49;;;;;;;;;;;;;;;29.67;35.18;101007.78;4937829;28;7967;-78
2022/10/04 10:28:07;;;;;;;;;;;;;;;30.58;33.70;101011.81;4938130;28;7228;-77
2022/10/04 10:31:07;;;;;;;;;;;;;;;31.53;32.31;101007.44;4935125;28;7008;-78
2022/10/04 10:34:04;;;;;;;;;;;;;;;32.27;31.01;101003.34;4929275;28;7237;-78
2022/10/04 10:37:09;;;;;;;;;;;;;;;32.95;29.82;101011.66;4930029;28;7019;-76
2022/10/04 10:40:39;;;;;;;;;;;;;;;33.50;28.54;101001.69;4930968;28;7008;-77
2022/10/04 10:44:02;;;;;;;;;;;;;;;33.91;27.98;101001.84;4934633;28;7206;-78
2022/10/04 10:47:18;;;;;;;;;;;;;;;34.31;27.39;100998.47;4924866;28;6824;-78
2022/10/04 10:50:57;;;;;;;;;;;;;;;34.83;26.71;100999.78;4934799;28;7207;-76
2022/10/04 10:54:20;;;;;;;;;;;;;;;35.44;26.49;100995.25;4925258;28;7276;-75
2022/10/04 10:57:48;;;;;;;;;;;;;;;35.80;27.12;100986.44;4919455;28;7005;-76
2022/10/04 11:00:24;;;;;;;;;;;;;;;36.12;25.85;100985.78;4937335;28;7129;-77
2022/10/04 11:03:22;;;;;;;;;;;;;;;36.26;26.09;100985.09;4938046;28;6870;-75
2022/10/04 11:06:15;;;;;;;;;;;;;;;36.30;25.67;100980.47;4938015;28;7248;-76
2022/10/04 11:09:31;;;;;;;;;;;;;;;36.33;25.80;100975.84;4939390;28;7025;-75
2022/10/04 11:12:11;;;;;;;;;;;;;;;36.57;25.65;100970.16;4942972;28;6989;-76
2022/10/04 11:15:37;;;;;;;;;;;;;;;36.74;24.90;100971.94;4924846;28;7061;-76
2022/10/04 11:18:40;;;;;;;;;;;;;;;36.72;24.27;100972.97;4933621;28;7212;-78
2022/10/04 11:22:05;;;;;;;;;;;;;;;36.60;24.32;100969.16;4938023;28;6852;-77
2022/10/04 11:25:33;;;;;;;;;;;;;;;36.24;24.05;100976.31;4939327;28;6867;-78
2022/10/04 11:28:15;;;;;;;;;;;;;;;35.83;24.76;100980.97;4942217;28;7289;-76
2022/10/04 11:31:25;;;;;;;;;;;;;;;35.39;24.33;100967.97;4923976;28;6995;-77
2022/10/04 11:34:34;;;;;;;;;;;;;;;34.36;24.85;100964.53;4918869;28;6986;-76
2022/10/04 11:37:31;;;;;;;;;;;;;;;33.56;25.37;100964.25;4941428;28;7256;-75
2022/10/04 11:40:12;;;;;;;;;;;;;;;33.97;25.61;100967.94;4937183;28;7172;-78
2022/10/04 11:42:51;;;;;;;;;;;;;;;34.57;25.61;100968.09;4940671;28;7245;-76
2022/10/04 11:45:54;;;;;;;;;;;;;;;35.22;24.42;100960.78;4939993;28;7219;-76
2022/10/04 11:49:03;;;;;;;;;;;;;;;35.70;24.08;100956.72;4943023;28;7003;-75
2022/10/04 11:52:25;;;;;;;;;;;;;;;36.12;23.97;100962.66;4939175;28;7255;-77
2022/10/04 11:55:19;;;;;;;;;;;;;;;36.48;23.47;100968.84;4940212;28;7249;-75
2022/10/04 11:58:23;;;;;;;;;;;;;;;36.78;22.91;100968.16;4919336;28;7228;-76
2022/10/04 12:01:00;;;;;;;;;;;;;;;37.01;22.68;100967.88;4936882;28;7056;-76
2022/10/04 12:04:11;;;;;;;;;;;;;;;37.21;22.86;100970.31;4937350;28;6828;-76
2022/10/04 12:07:01;;;;;;;;;;;;;;;37.27;22.42;100961.09;4934753;28;7024;-77
2022/10/04 12:10:13;;;;;;;;;;;;;;;37.29;22.33;100955.66;4930441;28;7261;-78
2022/10/04 12:13:09;;;;;;;;;;;;;;;36.99;21.85;100951.91;4934133;28;11082;-78
2022/10/04 12:16:36;;;;;;;;;;;;;;;35.58;22.31;100944.84;4929702;28;7199;-77
2022/10/04 12:20:01;;;;;;;;;;;;;;;33.50;23.94;100948.53;4938057;28;8891;-77
2022/10/04 12:22:54;;;;;;;;;;;;;;;31.65;24.43;100955.00;4916352;28;7360;-76
2022/10/04 12:25:31;;;;;;;;;;;;;;;30.37;25.96;100957.69;4936423;28;7009;-77
2022/10/04 12:28:43;;;;;;;;;;;;;;;29.28;26.92;100941.72;4936063;28;7311;-78
2022/10/04 12:31:27;;;;;;;;;;;;;;;28.43;27.56;100942.44;4934818;28;6840;-79
2022/10/04 12:34:05;;;;;;;;;;;;;;;27.81;28.10;100948.72;4935224;28;7067;-77
2022/10/04 12:36:46;;;;;;;;;;;;;;;27.24;28.73;100940.72;4937619;28;7000;-77
2022/10/04 12:39:45;;;;;;;;;;;;;;;26.72;29.46;100937.78;4936143;28;7386;-77
2022/10/04 12:42:38;;;;;;;;;;;;;;;26.29;30.01;100943.47;4935563;28;7098;-77
2022/10/04 12:45:51;;;;;;;;;;;;;;;25.88;30.57;100938.50;4926632;28;7195;-77
2022/10/04 12:48:56;;;;;;;;;;;;;;;25.50;31.43;100929.13;4919606;28;7043;-78
2022/10/04 12:51:37;;;;;;;;;;;;;;;25.19;32.13;100926.59;4923858;28;7748;-76
2022/10/04 12:54:35;;;;;;;;;;;;;;;24.98;32.89;100936.31;4938063;28;7001;-77
2022/10/04 12:57:27;;;;;;;;;;;;;;;24.77;33.28;100934.56;4940520;28;6830;-78
2022/10/04 13:00:21;;;;;;;;;;;;;;;24.59;33.56;100943.38;4936899;28;7192;-77
2022/10/04 13:03:39;;;;;;;;;;;;;;;24.40;33.54;100938.16;4919547;28;13374;-77
2022/10/04 13:06:29;;;;;;;;;;;;;;;24.26;34.84;100936.41;4938646;28;8546;-77
2022/10/04 13:09:29;;;;;;;;;;;;;;;24.15;35.19;100930.31;4938516;28;7009;-77
2022/10/04 13:12:58;;;;;;;;;;;;;;;23.98;35.31;100931.16;4935775;28;6857;-77
2022/10/04 13:16:12;;;;;;;;;;;;;;;23.90;36.02;100919.78;4938547;28;7002;-77
2022/10/04 13:19:11;;;;;;;;;;;;;;;23.85;36.10;100917.16;4919438;28;7188;-77
2022/10/04 13:21:40;;;;;;;;;;;;;;;23.84;36.40;100911.91;4931198;28;7344;-79
2022/10/04 13:24:53;;;;;;;;;;;;;;;23.85;35.50;100904.09;4939423;28;6792;-77
2022/10/04 13:28:19;;;;;;;;;;;;;;;23.83;35.82;100907.56;4934667;28;7310;-77
2022/10/04 13:31:47;;;;;;;;;;;;;;;23.80;35.84;100899.72;4921141;28;7073;-77
2022/10/04 13:34:40;;;;;;;;;;;;;;;23.75;36.78;100904.06;4934509;28;7426;-80
2022/10/04 13:38:01;;;;;;;;;;;;;;;23.70;36.70;100899.72;4922592;28;7224;-77
2022/10/04 13:41:03;;;;;;;;;;;;;;;23.64;37.19;100893.59;4936568;28;7006;-77
2022/10/04 13:44:16;;;;;;;;;;;;;;;23.60;36.77;100890.09;4936235;28;7019;-76
2022/10/04 13:47:05;;;;;;;;;;;;;;;23.58;37.01;100886.63;4940022;28;6974;-77
2022/10/04 13:50:11;;;;;;;;;;;;;;;23.59;37.22;100880.50;4935944;28;6836;-77
2022/10/04 13:58:49;;;;;;;;;;;;;;;23.65;37.06;100862.19;4934356;28;6804;-78
2022/10/04 14:01:53;;;;;;;;;;;;;;;23.68;37.32;100854.34;4917803;28;7253;-79
2022/10/04 14:05:06;;;;;;;;;;;;;;;23.71;36.94;100856.13;4938688;28;6873;-80
2022/10/04 14:08:08;;;;;;;;;;;;;;;23.71;37.02;100856.97;4929417;28;6863;-79
2022/10/04 14:10:47;;;;;;;;;;;;;;;23.70;37.18;100867.41;4939070;28;7210;-76
2022/10/04 14:13:41;;;;;;;;;;;;;;;23.69;37.23;100861.34;4938840;28;7237;-79
2022/10/04 14:16:50;;;;;;;;;;;;;;;23.69;37.46;100850.88;4931613;28;6966;-76
2022/10/04 14:19:39;;;;;;;;;;;;;;;23.69;37.33;100855.22;4941432;28;7244;-79
2022/10/04 14:23:00;;;;;;;;;;;;;;;23.72;38.15;100856.09;4941223;28;7235;-77
2022/10/04 14:25:44;;;;;;;;;;;;;;;23.74;38.28;100866.56;4940797;28;7080;-78
2022/10/04 14:28:47;;;;;;;;;;;;;;;23.78;37.83;100870.06;4935890;28;7019;-78
2022/10/04 14:31:57;;;;;;;;;;;;;;;23.88;38.46;100861.34;4936981;28;7042;-78
2022/10/04 14:34:55;;;;;;;;;;;;;;;24.10;38.03;100849.16;4937906;28;7094;-76
2022/10/04 14:38:14;;;;;;;;;;;;;;;24.64;37.97;100850.75;4938264;28;6816;-76
2022/10/04 14:41:15;;;;;;;;;;;;;;;25.35;36.70;100851.31;4936979;28;6796;-77
2022/10/04 14:44:19;;;;;;;;;;;;;;;25.98;36.28;100849.13;4937428;28;7008;-77
2022/10/04 14:47:03;;;;;;;;;;;;;;;26.44;35.57;100830.31;4936316;28;7004;-82
2022/10/04 14:49:29;;;;;;;;;;;;;;;26.71;34.89;100822.16;4940433;28;8907;-82
2022/10/04 14:52:13;;;;;;;;;;;;;;;26.86;34.48;100819.28;4944046;28;7313;-81
2022/10/04 14:55:06;;;;;;;;;;;;;;;26.90;34.03;100822.78;4947652;28;8711;-82